Terminal Aerodrome Forecast
Issued by NWS Chicago, IL

Home | Current Version | Previous Version | Graphics & Text | Print | Product List | Glossary On
Versions: 1 2 3 4 5 6 7 8 9 10 11 12 13 14 15 16 17 18 19 20 21 22 23 24 25 26 27
000
FTUS43 KLOT 222032 AAA
TAFRFD
TAF AMD
KRFD 222032Z 2221/2318 21010G15KT P6SM VCSH FEW030 BKN050 BKN200
     FM230200 19011KT P6SM BKN025
     FM230500 23012KT P6SM -SHRA SCT010 BKN020 BKN050
      TEMPO 2305/2307 4SM -TSRA BKN015CB BKN050
     FM230900 34010KT P6SM SCT015 BKN050
     FM231600 32012KT P6SM SCT035 BKN200=

USA.gov is the U.S. government's official web portal to all federal, state and local government web resources and services.